Time;durP1;ratioP1;P1;durP2;ratioP2;P2;SDS_P1;SDS_P2;PMS_P1;PMS_P2;Temp;Humidity;BMP_temperature;BMP_pressure;BME280_temperature;BME280_humidity;BME280_pressure;Samples;Min_cycle;Max_cycle;Signal;HPM_P1;HPM_P2
2023/07/07 00:01:09;;;;;;;;;;;15.90;99.90;;;;;;5003651;28;19926;-69
2023/07/07 00:03:36;;;;;;;;;;;15.80;99.90;;;;;;5003479;28;20164;-69
2023/07/07 00:06:03;;;;;;;;;;;15.80;99.90;;;;;;5003623;28;19989;-69
2023/07/07 00:08:31;;;;;;;;;;;15.70;99.90;;;;;;5003210;28;19989;-69
2023/07/07 00:10:58;;;;;;;;;;;15.70;99.90;;;;;;5003758;28;19922;-69
2023/07/07 00:13:25;;;;;;;;;;;15.60;99.90;;;;;;5003582;28;20116;-69
2023/07/07 00:15:57;;;;;;;;;;;15.60;99.90;;;;;;5003559;28;19922;-69
2023/07/07 00:18:27;;;;;;;;;;;15.50;99.90;;;;;;5003014;28;20272;-69
2023/07/07 00:20:54;;;;;;;;;;;15.40;99.90;;;;;;5003538;28;19930;-69
2023/07/07 00:23:20;;;;;;;;;;;15.40;99.90;;;;;;5003137;28;19936;-69
2023/07/07 00:25:59;;;;;;;;;;;15.40;99.90;;;;;;5003386;28;19921;-69
2023/07/07 00:28:25;;;;;;;;;;;15.30;99.90;;;;;;5003482;28;19929;-69
2023/07/07 00:30:52;;;;;;;;;;;15.30;99.90;;;;;;5003760;28;19988;-69
2023/07/07 00:33:18;;;;;;;;;;;15.20;99.90;;;;;;5003321;28;19921;-69
2023/07/07 00:35:46;;;;;;;;;;;15.20;99.90;;;;;;5003377;28;19929;-69
2023/07/07 00:38:12;;;;;;;;;;;15.20;99.90;;;;;;5003602;28;19929;-69
2023/07/07 00:40:39;;;;;;;;;;;15.10;99.90;;;;;;5003752;28;19988;-69
2023/07/07 00:43:10;;;;;;;;;;;15.10;99.90;;;;;;5003482;28;19921;-69
2023/07/07 00:45:36;;;;;;;;;;;15.10;99.90;;;;;;5006462;28;20120;-69
2023/07/07 00:48:04;;;;;;;;;;;15.00;99.90;;;;;;5007006;28;19961;-69
2023/07/07 00:50:33;;;;;;;;;;;15.00;99.90;;;;;;5007279;28;19922;-69
2023/07/07 00:52:59;;;;;;;;;;;15.00;99.90;;;;;;4987794;28;19922;-69
2023/07/07 00:55:28;;;;;;;;;;;14.90;99.90;;;;;;4987608;28;19930;-69
2023/07/07 00:57:54;;;;;;;;;;;14.90;99.90;;;;;;4987217;28;20297;-69
2023/07/07 01:00:23;;;;;;;;;;;14.80;99.90;;;;;;4987567;28;19929;-69
2023/07/07 01:02:53;;;;;;;;;;;14.80;99.90;;;;;;5003293;28;19922;-69
2023/07/07 01:05:21;;;;;;;;;;;14.70;99.90;;;;;;4987540;28;19922;-69
2023/07/07 01:07:52;;;;;;;;;;;14.60;99.90;;;;;;4986958;28;19985;-69
2023/07/07 01:10:19;;;;;;;;;;;14.60;99.90;;;;;;5002408;28;19922;-69
2023/07/07 01:12:47;;;;;;;;;;;14.60;99.90;;;;;;5006523;28;20001;-69
2023/07/07 01:15:14;;;;;;;;;;;14.60;99.90;;;;;;5006788;28;19945;-70
2023/07/07 01:17:48;;;;;;;;;;;14.60;99.90;;;;;;5006691;28;19922;-70
2023/07/07 01:20:19;;;;;;;;;;;14.50;99.90;;;;;;4987187;28;19957;-69
2023/07/07 01:23:00;;;;;;;;;;;14.50;99.90;;;;;;4986020;28;19985;-69
2023/07/07 01:25:30;;;;;;;;;;;14.40;99.90;;;;;;4986880;28;19976;-69
2023/07/07 01:28:08;;;;;;;;;;;14.40;99.90;;;;;;4986710;28;19930;-69
2023/07/07 01:30:43;;;;;;;;;;;14.30;99.90;;;;;;4987095;28;19985;-69
2023/07/07 01:33:11;;;;;;;;;;;14.30;99.90;;;;;;4986459;28;19989;-69
2023/07/07 01:35:38;;;;;;;;;;;14.20;99.90;;;;;;4986825;28;19928;-70
2023/07/07 01:38:05;;;;;;;;;;;14.10;99.90;;;;;;4986803;28;19922;-69
2023/07/07 01:40:36;;;;;;;;;;;14.20;99.90;;;;;;4986751;28;20280;-68
2023/07/07 01:43:06;;;;;;;;;;;14.10;99.90;;;;;;4986735;28;19985;-69
2023/07/07 01:45:35;;;;;;;;;;;14.00;99.90;;;;;;4991158;28;19922;-68
2023/07/07 01:48:07;;;;;;;;;;;14.00;99.90;;;;;;5005898;28;20116;-69
2023/07/07 01:50:35;;;;;;;;;;;13.90;99.90;;;;;;5005857;28;19928;-70
2023/07/07 01:53:04;;;;;;;;;;;13.90;99.90;;;;;;5005739;28;19922;-69
2023/07/07 01:55:33;;;;;;;;;;;13.90;99.90;;;;;;5005461;28;20091;-69
2023/07/07 01:58:01;;;;;;;;;;;13.90;99.90;;;;;;5005548;28;19953;-69
2023/07/07 02:00:29;;;;;;;;;;;13.90;99.90;;;;;;5005875;28;19961;-69
2023/07/07 02:02:56;;;;;;;;;;;13.90;99.90;;;;;;5005621;28;20016;-69
2023/07/07 02:05:25;;;;;;;;;;;13.90;99.90;;;;;;5005886;28;19922;-69
2023/07/07 02:07:51;;;;;;;;;;;13.80;99.90;;;;;;5005348;28;19988;-70
2023/07/07 02:10:18;;;;;;;;;;;13.80;99.90;;;;;;5005640;28;19921;-69
2023/07/07 02:12:45;;;;;;;;;;;13.70;99.90;;;;;;5005422;28;20223;-69
2023/07/07 02:15:12;;;;;;;;;;;13.70;99.90;;;;;;4994408;28;19929;-69
2023/07/07 02:17:39;;;;;;;;;;;13.70;99.90;;;;;;5000562;28;19922;-69
2023/07/07 02:20:06;;;;;;;;;;;13.60;99.90;;;;;;5005693;28;19985;-69
2023/07/07 02:22:34;;;;;;;;;;;13.60;99.90;;;;;;5005412;28;20001;-69
2023/07/07 02:25:00;;;;;;;;;;;13.50;99.90;;;;;;5005456;28;20240;-69
2023/07/07 02:27:27;;;;;;;;;;;13.50;99.90;;;;;;5005295;28;19929;-70
2023/07/07 02:29:54;;;;;;;;;;;13.50;99.90;;;;;;5005500;28;19984;-69
2023/07/07 02:32:20;;;;;;;;;;;13.40;99.90;;;;;;5004253;28;20237;-70
2023/07/07 02:34:48;;;;;;;;;;;13.40;99.90;;;;;;5005393;28;19984;-69
2023/07/07 02:37:15;;;;;;;;;;;13.40;99.90;;;;;;5004988;28;19934;-70
2023/07/07 02:39:44;;;;;;;;;;;13.40;99.90;;;;;;5005470;28;19988;-70
2023/07/07 02:42:10;;;;;;;;;;;13.40;99.90;;;;;;5004438;28;19997;-69
2023/07/07 02:44:37;;;;;;;;;;;13.30;99.90;;;;;;5005192;28;19922;-70
2023/07/07 02:47:04;;;;;;;;;;;13.30;99.90;;;;;;5004769;28;19988;-69
2023/07/07 02:49:31;;;;;;;;;;;13.20;99.90;;;;;;5004702;28;20423;-69
2023/07/07 02:51:57;;;;;;;;;;;13.20;99.90;;;;;;5004908;28;19994;-69
2023/07/07 02:54:24;;;;;;;;;;;13.10;99.90;;;;;;5004839;28;19921;-70
2023/07/07 02:56:52;;;;;;;;;;;13.10;99.90;;;;;;4987674;28;19953;-69
2023/07/07 02:59:18;;;;;;;;;;;13.10;99.90;;;;;;4985418;28;19929;-69
2023/07/07 03:01:45;;;;;;;;;;;13.00;99.90;;;;;;4992438;28;20242;-69
2023/07/07 03:04:12;;;;;;;;;;;13.00;99.90;;;;;;5004931;28;19962;-69
2023/07/07 03:06:39;;;;;;;;;;;13.00;99.90;;;;;;5004368;28;19922;-69
2023/07/07 03:09:07;;;;;;;;;;;12.90;99.90;;;;;;5002763;28;19992;-69
2023/07/07 03:11:33;;;;;;;;;;;12.90;99.90;;;;;;5004372;28;19993;-70
2023/07/07 03:14:01;;;;;;;;;;;12.90;99.90;;;;;;5004679;28;19922;-69
2023/07/07 03:16:30;;;;;;;;;;;12.90;99.90;;;;;;5004627;28;19922;-69
2023/07/07 03:18:58;;;;;;;;;;;12.80;99.90;;;;;;4991402;28;19928;-69
2023/07/07 03:21:25;;;;;;;;;;;12.80;99.90;;;;;;4984603;28;19989;-69
2023/07/07 03:23:52;;;;;;;;;;;12.80;99.90;;;;;;4985255;28;19922;-69
2023/07/07 03:26:19;;;;;;;;;;;12.80;99.90;;;;;;4987235;28;20221;-69
2023/07/07 03:28:46;;;;;;;;;;;12.80;99.90;;;;;;5004290;28;19922;-69
2023/07/07 03:31:15;;;;;;;;;;;12.80;99.90;;;;;;5004203;28;19921;-69
2023/07/07 03:33:43;;;;;;;;;;;12.70;99.90;;;;;;5003873;28;20209;-69
2023/07/07 03:36:11;;;;;;;;;;;12.70;99.90;;;;;;5004348;28;19921;-69
2023/07/07 03:38:37;;;;;;;;;;;12.70;99.90;;;;;;5003914;28;19926;-69
2023/07/07 03:41:04;;;;;;;;;;;12.70;99.90;;;;;;5004062;28;19989;-69
2023/07/07 03:43:33;;;;;;;;;;;12.70;99.90;;;;;;5003992;28;19922;-69
2023/07/07 03:46:00;;;;;;;;;;;12.70;99.90;;;;;;5004012;28;19953;-69
2023/07/07 03:48:28;;;;;;;;;;;12.60;99.90;;;;;;4992273;28;20406;-69
2023/07/07 03:50:55;;;;;;;;;;;12.60;99.90;;;;;;5012221;28;20146;-69
2023/07/07 03:53:22;;;;;;;;;;;12.60;99.90;;;;;;5011565;28;19928;-69
2023/07/07 03:55:48;;;;;;;;;;;12.60;99.90;;;;;;5012007;28;19961;-69
2023/07/07 03:58:15;;;;;;;;;;;12.60;99.90;;;;;;5017104;28;19976;-68
2023/07/07 04:00:42;;;;;;;;;;;12.50;99.90;;;;;;5003447;28;20295;-69
2023/07/07 04:03:08;;;;;;;;;;;12.60;99.90;;;;;;5003426;28;19921;-68
2023/07/07 04:05:41;;;;;;;;;;;12.60;99.90;;;;;;5003453;28;19945;-69
2023/07/07 04:08:08;;;;;;;;;;;12.60;99.90;;;;;;5003769;28;19930;-69
2023/07/07 04:10:35;;;;;;;;;;;12.60;99.90;;;;;;5003984;28;19922;-69
2023/07/07 04:13:01;;;;;;;;;;;12.60;99.90;;;;;;5003738;28;19922;-70
2023/07/07 04:15:28;;;;;;;;;;;12.70;99.90;;;;;;5003830;28;19944;-68
2023/07/07 04:17:55;;;;;;;;;;;12.70;99.90;;;;;;5009818;28;19996;-69
2023/07/07 04:20:21;;;;;;;;;;;12.70;99.90;;;;;;5006429;28;19985;-69
2023/07/07 04:22:49;;;;;;;;;;;12.70;99.90;;;;;;5007016;28;20268;-68
2023/07/07 04:25:17;;;;;;;;;;;12.70;99.90;;;;;;4991572;28;19922;-69
2023/07/07 04:27:44;;;;;;;;;;;12.60;99.90;;;;;;5007712;28;19988;-69
2023/07/07 04:30:11;;;;;;;;;;;12.70;99.90;;;;;;5007667;28;19922;-70
2023/07/07 04:32:38;;;;;;;;;;;12.70;99.90;;;;;;5007155;28;20264;-69
2023/07/07 04:35:05;;;;;;;;;;;12.70;99.90;;;;;;5007526;28;19922;-69
2023/07/07 04:37:33;;;;;;;;;;;12.80;99.90;;;;;;5007581;28;19953;-69
2023/07/07 04:40:00;;;;;;;;;;;12.90;99.90;;;;;;5007322;28;19926;-69
2023/07/07 04:42:27;;;;;;;;;;;13.00;99.90;;;;;;5006966;28;19922;-68
2023/07/07 04:44:54;;;;;;;;;;;13.00;99.90;;;;;;5007010;28;20177;-66
2023/07/07 04:47:20;;;;;;;;;;;13.00;99.90;;;;;;4997350;28;19922;-66
2023/07/07 04:49:47;;;;;;;;;;;13.10;99.90;;;;;;5006731;28;19930;-66
2023/07/07 04:52:14;;;;;;;;;;;13.10;99.90;;;;;;5006795;28;20232;-66
2023/07/07 04:54:40;;;;;;;;;;;13.20;99.90;;;;;;5006974;28;19989;-66
2023/07/07 04:57:08;;;;;;;;;;;13.30;99.90;;;;;;5007016;28;19992;-67
2023/07/07 04:59:35;;;;;;;;;;;13.40;99.90;;;;;;5006620;28;19922;-67
2023/07/07 05:02:03;;;;;;;;;;;13.50;99.90;;;;;;5006195;28;19969;-67
2023/07/07 05:04:29;;;;;;;;;;;13.60;99.90;;;;;;5006314;28;19922;-67
2023/07/07 05:06:56;;;;;;;;;;;13.70;99.90;;;;;;5006280;28;19929;-67
2023/07/07 05:09:22;;;;;;;;;;;13.80;99.90;;;;;;5006377;28;19968;-67
2023/07/07 05:11:49;;;;;;;;;;;13.90;99.90;;;;;;5006749;28;19936;-66
2023/07/07 05:14:17;;;;;;;;;;;14.00;99.90;;;;;;4988696;28;20189;-67
2023/07/07 05:16:44;;;;;;;;;;;14.10;99.90;;;;;;4997073;28;19922;-67
2023/07/07 05:19:10;;;;;;;;;;;14.20;99.90;;;;;;4987139;28;19930;-67
2023/07/07 05:21:37;;;;;;;;;;;14.30;99.90;;;;;;4986648;28;19953;-67
2023/07/07 05:24:04;;;;;;;;;;;14.40;99.90;;;;;;4986978;28;19958;-67
2023/07/07 05:26:30;;;;;;;;;;;14.50;99.90;;;;;;4986545;28;20017;-68
2023/07/07 05:28:59;;;;;;;;;;;14.60;99.90;;;;;;4986424;28;19989;-67
2023/07/07 05:31:27;;;;;;;;;;;14.70;99.90;;;;;;4984516;28;19922;-69
2023/07/07 05:33:53;;;;;;;;;;;14.80;99.90;;;;;;5000869;28;19981;-72
2023/07/07 05:36:20;;;;;;;;;;;15.00;99.90;;;;;;5005661;28;20256;-67
2023/07/07 05:38:47;;;;;;;;;;;15.00;99.90;;;;;;5005767;28;19956;-67
2023/07/07 05:41:13;;;;;;;;;;;15.10;99.90;;;;;;5005978;28;19985;-67
2023/07/07 05:43:40;;;;;;;;;;;15.30;99.90;;;;;;5005337;28;20261;-69
2023/07/07 05:46:08;;;;;;;;;;;15.40;99.90;;;;;;5006061;28;19999;-69
2023/07/07 05:48:37;;;;;;;;;;;15.40;99.90;;;;;;5005191;28;19922;-69
2023/07/07 05:51:04;;;;;;;;;;;15.50;99.90;;;;;;5005657;28;19922;-69
2023/07/07 05:53:31;;;;;;;;;;;15.60;99.90;;;;;;5005500;28;19922;-69
2023/07/07 05:56:03;;;;;;;;;;;15.80;99.90;;;;;;5005471;28;19983;-69
2023/07/07 05:58:30;;;;;;;;;;;15.90;99.90;;;;;;5005834;28;19961;-68
2023/07/07 06:00:56;;;;;;;;;;;16.00;99.90;;;;;;5005417;28;19949;-69
2023/07/07 06:03:23;;;;;;;;;;;16.10;99.90;;;;;;4998482;28;19985;-68
2023/07/07 06:05:51;;;;;;;;;;;16.20;99.90;;;;;;5005955;28;19922;-68
2023/07/07 06:08:17;;;;;;;;;;;16.40;99.90;;;;;;5005648;28;19984;-69
2023/07/07 06:10:47;;;;;;;;;;;16.50;99.90;;;;;;5005744;28;19928;-69
2023/07/07 06:13:16;;;;;;;;;;;16.60;99.90;;;;;;5005586;28;19928;-68
2023/07/07 06:15:43;;;;;;;;;;;16.70;99.90;;;;;;5005593;28;19954;-68
2023/07/07 06:18:10;;;;;;;;;;;16.80;99.90;;;;;;5005340;28;20213;-69
2023/07/07 06:20:36;;;;;;;;;;;16.90;99.90;;;;;;5005551;28;19960;-68
2023/07/07 06:23:05;;;;;;;;;;;17.00;99.90;;;;;;5005328;28;19929;-67
2023/07/07 06:25:32;;;;;;;;;;;17.20;99.90;;;;;;5005452;28;19922;-68
2023/07/07 06:27:58;;;;;;;;;;;17.30;99.90;;;;;;5005369;28;19922;-69
2023/07/07 06:30:25;;;;;;;;;;;17.50;99.90;;;;;;5004573;28;19968;-68
2023/07/07 06:32:52;;;;;;;;;;;17.60;99.90;;;;;;5005254;28;19957;-68
2023/07/07 06:35:18;;;;;;;;;;;17.80;99.90;;;;;;5005109;28;19985;-68
2023/07/07 06:37:45;;;;;;;;;;;17.80;99.90;;;;;;5005081;28;19921;-68
2023/07/07 06:40:14;;;;;;;;;;;18.00;99.90;;;;;;5004620;28;19921;-68
2023/07/07 06:42:41;;;;;;;;;;;18.10;99.90;;;;;;5004682;28;19922;-68
2023/07/07 06:45:08;;;;;;;;;;;18.20;99.90;;;;;;5005190;28;20069;-69
2023/07/07 06:47:35;;;;;;;;;;;18.30;99.90;;;;;;5004055;28;19928;-68
2023/07/07 06:50:01;;;;;;;;;;;18.40;99.90;;;;;;5004792;28;20276;-67
2023/07/07 06:52:28;;;;;;;;;;;18.60;99.90;;;;;;5004481;28;19945;-67
2023/07/07 06:54:56;;;;;;;;;;;18.60;99.90;;;;;;5004744;28;19929;-68
2023/07/07 06:57:24;;;;;;;;;;;18.60;99.90;;;;;;5004942;28;19925;-68
2023/07/07 06:59:51;;;;;;;;;;;18.70;99.90;;;;;;5004073;28;20090;-67
2023/07/07 07:02:17;;;;;;;;;;;18.90;99.90;;;;;;5004386;28;19993;-67
2023/07/07 07:04:44;;;;;;;;;;;19.00;99.90;;;;;;5004522;28;19953;-68
2023/07/07 07:07:11;;;;;;;;;;;19.20;99.90;;;;;;5002427;28;19964;-68
2023/07/07 07:09:37;;;;;;;;;;;19.40;99.90;;;;;;5003804;28;20177;-68
2023/07/07 07:12:04;;;;;;;;;;;19.50;99.90;;;;;;5004258;28;19988;-67
2023/07/07 07:14:32;;;;;;;;;;;19.70;99.90;;;;;;5004607;28;19929;-68
2023/07/07 07:16:59;;;;;;;;;;;19.80;99.90;;;;;;4987961;28;19985;-68
2023/07/07 07:19:26;;;;;;;;;;;20.00;99.90;;;;;;4988250;28;19984;-68
2023/07/07 07:21:52;;;;;;;;;;;20.10;99.90;;;;;;5002136;28;19984;-68
2023/07/07 07:24:19;;;;;;;;;;;20.20;99.90;;;;;;5003855;28;19988;-67
2023/07/07 07:26:46;;;;;;;;;;;20.40;99.90;;;;;;5004322;28;19960;-68
2023/07/07 07:29:14;;;;;;;;;;;20.50;99.90;;;;;;5004600;28;19921;-67
2023/07/07 07:31:43;;;;;;;;;;;20.60;99.90;;;;;;5003191;28;19922;-67
2023/07/07 07:34:22;;;;;;;;;;;20.70;99.90;;;;;;5004452;28;19990;-68
2023/07/07 07:36:48;;;;;;;;;;;20.80;99.90;;;;;;5004261;28;20164;-68
2023/07/07 07:39:15;;;;;;;;;;;20.90;99.90;;;;;;5003804;28;19922;-68
2023/07/07 07:41:42;;;;;;;;;;;21.00;99.90;;;;;;5003991;28;19957;-67
2023/07/07 07:44:09;;;;;;;;;;;21.10;99.90;;;;;;5004098;28;19953;-68
2023/07/07 07:46:39;;;;;;;;;;;21.20;99.90;;;;;;5004290;28;19928;-67
2023/07/07 07:49:07;;;;;;;;;;;21.30;99.90;;;;;;5004079;28;20129;-67
2023/07/07 07:51:37;;;;;;;;;;;21.50;99.90;;;;;;5003820;28;19929;-68
2023/07/07 07:54:04;;;;;;;;;;;21.60;99.90;;;;;;5003428;28;19921;-68
2023/07/07 07:56:30;;;;;;;;;;;21.70;99.90;;;;;;5003674;28;19988;-67
2023/07/07 07:58:57;;;;;;;;;;;21.70;99.90;;;;;;5003651;28;19952;-68
2023/07/07 08:01:24;;;;;;;;;;;21.80;99.90;;;;;;5003776;28;20124;-69
2023/07/07 08:03:50;;;;;;;;;;;21.80;99.90;;;;;;5003705;28;19988;-68
2023/07/07 08:06:18;;;;;;;;;;;21.90;99.90;;;;;;5003951;28;19958;-67
2023/07/07 08:08:45;;;;;;;;;;;22.00;99.90;;;;;;5003642;28;19964;-67
2023/07/07 08:11:13;;;;;;;;;;;22.10;99.90;;;;;;5003110;28;19953;-68
2023/07/07 08:13:39;;;;;;;;;;;22.30;99.90;;;;;;5003512;28;19964;-68
2023/07/07 08:16:07;;;;;;;;;;;22.30;99.90;;;;;;5003843;28;19953;-68
2023/07/07 08:18:34;;;;;;;;;;;22.50;99.90;;;;;;5003557;28;19925;-68
2023/07/07 08:21:00;;;;;;;;;;;22.60;99.90;;;;;;4988837;28;19960;-68
2023/07/07 08:23:28;;;;;;;;;;;22.70;99.90;;;;;;4983942;28;19922;-68
2023/07/07 08:25:55;;;;;;;;;;;22.80;99.90;;;;;;4984212;28;19922;-68
2023/07/07 08:28:22;;;;;;;;;;;22.90;99.90;;;;;;4984276;28;20272;-68
2023/07/07 08:30:49;;;;;;;;;;;23.00;99.90;;;;;;4984227;28;19926;-67
2023/07/07 08:33:16;;;;;;;;;;;23.00;99.90;;;;;;4983747;28;19932;-68
2023/07/07 08:35:43;;;;;;;;;;;23.20;99.90;;;;;;4984132;28;19953;-68
2023/07/07 08:38:09;;;;;;;;;;;23.20;99.90;;;;;;4983998;28;19929;-68
2023/07/07 08:40:43;;;;;;;;;;;23.40;99.90;;;;;;4989429;28;19922;-67
2023/07/07 08:43:10;;;;;;;;;;;23.50;99.90;;;;;;5003436;28;19965;-68
2023/07/07 08:45:37;;;;;;;;;;;23.60;99.90;;;;;;5003616;28;20117;-68
2023/07/07 08:48:08;;;;;;;;;;;23.60;99.90;;;;;;5003544;28;19928;-68
2023/07/07 08:50:38;;;;;;;;;;;23.70;99.90;;;;;;4992427;28;20174;-68
2023/07/07 08:53:29;;;;;;;;;;;23.80;99.90;;;;;;4984012;28;19989;-68
2023/07/07 08:56:00;;;;;;;;;;;23.90;99.90;;;;;;4983862;28;19922;-68
2023/07/07 08:58:31;;;;;;;;;;;24.00;99.90;;;;;;4984193;28;19964;-68
2023/07/07 09:01:03;;;;;;;;;;;24.20;99.90;;;;;;4984161;28;19989;-68
2023/07/07 09:03:37;;;;;;;;;;;24.20;99.90;;;;;;4983930;28;19922;-68
2023/07/07 09:06:11;;;;;;;;;;;24.30;99.90;;;;;;4985963;28;20111;-68
2023/07/07 09:08:41;;;;;;;;;;;24.40;99.90;;;;;;4987250;28;19961;-68
2023/07/07 09:11:17;;;;;;;;;;;24.40;99.90;;;;;;5002014;28;20259;-69
2023/07/07 09:13:45;;;;;;;;;;;24.50;98.70;;;;;;5006878;28;19922;-68
2023/07/07 09:16:18;;;;;;;;;;;24.50;97.90;;;;;;5006972;28;19922;-68
2023/07/07 09:18:46;;;;;;;;;;;24.70;97.80;;;;;;5005705;28;20134;-68
2023/07/07 09:21:18;;;;;;;;;;;24.70;98.00;;;;;;5006605;28;19984;-68
2023/07/07 09:23:45;;;;;;;;;;;24.80;97.30;;;;;;5006284;28;19929;-68
2023/07/07 09:26:18;;;;;;;;;;;24.90;94.10;;;;;;5006611;28;19985;-68
2023/07/07 09:28:46;;;;;;;;;;;25.00;94.40;;;;;;5016171;28;19928;-68
2023/07/07 09:31:20;;;;;;;;;;;25.10;93.60;;;;;;5025640;28;19929;-68
2023/07/07 09:33:47;;;;;;;;;;;25.00;93.60;;;;;;5006763;28;19921;-69
2023/07/07 09:36:16;;;;;;;;;;;25.10;95.00;;;;;;5006335;28;19977;-68
2023/07/07 09:38:49;;;;;;;;;;;25.20;95.50;;;;;;5006376;28;19970;-67
2023/07/07 09:41:20;;;;;;;;;;;25.30;94.00;;;;;;4986457;28;19922;-67
2023/07/07 09:43:54;;;;;;;;;;;25.40;94.30;;;;;;5005495;28;20193;-68
2023/07/07 09:46:24;;;;;;;;;;;25.60;92.80;;;;;;5006147;28;20153;-68
2023/07/07 09:48:55;;;;;;;;;;;25.60;92.40;;;;;;5006181;28;19988;-68
2023/07/07 09:51:28;;;;;;;;;;;25.60;93.20;;;;;;5005780;28;19993;-68
2023/07/07 09:53:55;;;;;;;;;;;25.70;93.50;;;;;;5006308;28;19996;-68
2023/07/07 09:56:25;;;;;;;;;;;25.80;93.00;;;;;;5005453;28;19957;-68
2023/07/07 09:58:57;;;;;;;;;;;25.80;93.00;;;;;;5005878;28;19960;-68
2023/07/07 10:01:28;;;;;;;;;;;25.90;92.40;;;;;;4994708;28;19961;-67
2023/07/07 10:03:55;;;;;;;;;;;26.00;92.40;;;;;;4986687;28;20220;-68
2023/07/07 10:06:25;;;;;;;;;;;26.00;92.80;;;;;;5004275;28;19985;-68
2023/07/07 10:08:52;;;;;;;;;;;26.00;93.10;;;;;;4986081;28;19929;-69
2023/07/07 10:11:20;;;;;;;;;;;26.10;93.70;;;;;;5000439;28;19997;-69
2023/07/07 10:13:51;;;;;;;;;;;26.20;93.60;;;;;;5005223;28;19921;-67
2023/07/07 10:16:23;;;;;;;;;;;26.40;93.20;;;;;;5005722;28;19980;-68
2023/07/07 10:18:50;;;;;;;;;;;26.50;92.50;;;;;;5005239;28;19954;-68
2023/07/07 10:21:19;;;;;;;;;;;26.60;91.40;;;;;;4992264;28;19929;-68
2023/07/07 10:23:45;;;;;;;;;;;26.70;91.00;;;;;;4990859;28;19962;-68
2023/07/07 10:26:12;;;;;;;;;;;26.70;92.40;;;;;;4991749;28;19981;-68
2023/07/07 10:28:38;;;;;;;;;;;26.80;92.20;;;;;;5005491;28;20001;-68
2023/07/07 10:31:06;;;;;;;;;;;26.90;90.70;;;;;;5002320;28;20113;-68
2023/07/07 10:33:33;;;;;;;;;;;27.00;90.90;;;;;;4992250;28;19965;-68
2023/07/07 10:36:16;;;;;;;;;;;27.10;90.30;;;;;;4989762;28;19986;-68
2023/07/07 10:38:44;;;;;;;;;;;27.20;90.90;;;;;;4993668;28;19928;-68
2023/07/07 10:41:11;;;;;;;;;;;27.20;89.50;;;;;;5004058;28;19972;-69
2023/07/07 10:43:37;;;;;;;;;;;27.30;90.50;;;;;;5004862;28;19990;-68
2023/07/07 10:46:08;;;;;;;;;;;27.30;89.90;;;;;;5003305;28;21091;-68
2023/07/07 10:48:35;;;;;;;;;;;27.40;88.00;;;;;;4985282;28;19922;-68
2023/07/07 10:51:08;;;;;;;;;;;27.60;86.50;;;;;;4987827;28;20165;-69
2023/07/07 10:53:40;;;;;;;;;;;27.60;84.90;;;;;;4984784;28;19990;-68
2023/07/07 10:56:24;;;;;;;;;;;27.70;85.00;;;;;;4985560;28;19926;-68
2023/07/07 10:59:00;;;;;;;;;;;27.80;86.40;;;;;;4975268;28;19922;-68
2023/07/07 11:01:35;;;;;;;;;;;27.90;84.50;;;;;;4999822;28;19930;-68
2023/07/07 11:04:19;;;;;;;;;;;28.00;84.30;;;;;;5004700;28;19925;-68
2023/07/07 11:06:52;;;;;;;;;;;28.10;84.00;;;;;;4984586;28;19922;-68
2023/07/07 11:09:33;;;;;;;;;;;28.20;83.90;;;;;;4994892;28;19925;-68
2023/07/07 11:12:05;;;;;;;;;;;28.30;84.80;;;;;;4984534;28;19928;-68
2023/07/07 11:14:39;;;;;;;;;;;28.30;84.10;;;;;;4985024;28;19929;-68
2023/07/07 11:17:15;;;;;;;;;;;28.50;84.70;;;;;;4985202;28;19988;-68
2023/07/07 11:19:52;;;;;;;;;;;28.60;83.60;;;;;;4988177;28;19992;-68
2023/07/07 11:22:25;;;;;;;;;;;28.60;82.50;;;;;;4991986;28;19989;-67
2023/07/07 11:24:55;;;;;;;;;;;28.70;80.50;;;;;;4992877;28;20209;-68
2023/07/07 11:27:28;;;;;;;;;;;28.70;79.70;;;;;;5005940;28;19957;-68
2023/07/07 11:30:02;;;;;;;;;;;28.80;79.60;;;;;;4993106;28;20402;-68
2023/07/07 11:32:37;;;;;;;;;;;29.00;78.10;;;;;;4997193;28;19977;-68
2023/07/07 11:35:12;;;;;;;;;;;29.10;77.00;;;;;;4992472;28;19984;-68
2023/07/07 11:37:44;;;;;;;;;;;29.10;75.90;;;;;;5004048;28;19941;-69
2023/07/07 11:40:22;;;;;;;;;;;29.10;78.20;;;;;;4984496;28;19968;-68
2023/07/07 11:42:57;;;;;;;;;;;29.20;77.60;;;;;;4990696;28;20112;-68
2023/07/07 11:45:29;;;;;;;;;;;29.40;75.40;;;;;;5004146;28;19928;-68
2023/07/07 11:48:07;;;;;;;;;;;29.40;74.90;;;;;;5003968;28;19921;-69
2023/07/07 11:50:40;;;;;;;;;;;29.50;76.00;;;;;;5003613;28;20381;-67
2023/07/07 11:53:14;;;;;;;;;;;29.50;73.70;;;;;;4999094;28;19922;-68
2023/07/07 11:55:48;;;;;;;;;;;29.60;71.70;;;;;;5003479;28;19929;-71
2023/07/07 11:58:21;;;;;;;;;;;29.60;72.60;;;;;;5003936;28;19986;-69
2023/07/07 12:00:51;;;;;;;;;;;29.70;74.10;;;;;;5004062;28;20112;-69
2023/07/07 12:03:28;;;;;;;;;;;29.80;71.40;;;;;;5003347;28;19984;-69
2023/07/07 12:05:56;;;;;;;;;;;30.00;71.90;;;;;;5004080;28;20244;-70
2023/07/07 12:08:24;;;;;;;;;;;30.10;69.40;;;;;;5003281;28;19928;-70
2023/07/07 12:10:54;;;;;;;;;;;30.10;68.20;;;;;;5003909;28;19922;-70
2023/07/07 12:13:23;;;;;;;;;;;30.00;68.50;;;;;;5002951;28;19928;-69
2023/07/07 12:15:52;;;;;;;;;;;30.10;67.70;;;;;;5003705;28;20113;-69
2023/07/07 12:18:21;;;;;;;;;;;30.20;67.20;;;;;;5003546;28;19922;-70
2023/07/07 12:20:51;;;;;;;;;;;30.30;67.20;;;;;;5003741;28;19989;-70
2023/07/07 12:23:20;;;;;;;;;;;30.40;67.80;;;;;;5002752;28;19981;-71
2023/07/07 12:25:47;;;;;;;;;;;30.40;66.70;;;;;;5003751;28;19928;-70
2023/07/07 12:28:14;;;;;;;;;;;30.40;68.20;;;;;;5003583;28;19921;-69
2023/07/07 12:30:44;;;;;;;;;;;30.50;67.00;;;;;;5003488;28;20257;-70
2023/07/07 12:33:12;;;;;;;;;;;30.60;65.90;;;;;;5002609;28;20270;-70
2023/07/07 12:35:44;;;;;;;;;;;30.60;66.50;;;;;;5003494;28;19953;-70
2023/07/07 12:38:16;;;;;;;;;;;30.70;64.60;;;;;;5001269;28;19922;-69
2023/07/07 12:40:44;;;;;;;;;;;30.90;63.80;;;;;;4997972;28;19988;-70
2023/07/07 12:43:19;;;;;;;;;;;31.10;66.30;;;;;;5006746;28;20246;-70
2023/07/07 12:45:47;;;;;;;;;;;31.30;64.10;;;;;;5007389;28;20094;-70
2023/07/07 12:48:18;;;;;;;;;;;31.30;63.30;;;;;;5007037;28;19928;-69
2023/07/07 12:50:45;;;;;;;;;;;31.30;65.10;;;;;;5007093;28;20233;-69
2023/07/07 12:53:20;;;;;;;;;;;31.40;64.50;;;;;;5006534;28;19922;-69
2023/07/07 12:55:57;;;;;;;;;;;31.50;64.60;;;;;;5007040;28;20009;-69
2023/07/07 12:58:30;;;;;;;;;;;31.60;65.70;;;;;;5002775;28;19924;-69
2023/07/07 13:01:10;;;;;;;;;;;31.80;64.80;;;;;;5006920;28;19944;-69
2023/07/07 13:03:44;;;;;;;;;;;32.00;63.50;;;;;;4987481;28;19993;-70
2023/07/07 13:06:24;;;;;;;;;;;32.20;63.90;;;;;;4994638;28;20217;-69
2023/07/07 13:09:03;;;;;;;;;;;32.40;62.70;;;;;;5000210;28;19929;-69
2023/07/07 13:11:32;;;;;;;;;;;32.40;62.40;;;;;;5006452;28;20117;-70
2023/07/07 13:13:59;;;;;;;;;;;32.50;62.80;;;;;;5005908;28;20114;-72
2023/07/07 13:16:26;;;;;;;;;;;32.60;60.90;;;;;;5019200;28;19921;-70
2023/07/07 13:18:52;;;;;;;;;;;32.60;59.80;;;;;;5006705;28;20226;-69
2023/07/07 13:21:19;;;;;;;;;;;32.40;58.80;;;;;;4992609;28;19929;-71
2023/07/07 13:23:48;;;;;;;;;;;32.10;59.90;;;;;;4987243;28;19922;-70
2023/07/07 13:26:26;;;;;;;;;;;31.90;60.00;;;;;;5006256;28;19969;-68
2023/07/07 13:28:53;;;;;;;;;;;31.80;61.10;;;;;;5000397;28;19949;-68
2023/07/07 13:31:20;;;;;;;;;;;31.90;60.90;;;;;;4986956;28;19922;-68
2023/07/07 13:33:46;;;;;;;;;;;32.00;62.20;;;;;;4987015;28;19961;-66
2023/07/07 13:36:13;;;;;;;;;;;32.00;57.60;;;;;;4986896;28;19922;-67
2023/07/07 13:38:44;;;;;;;;;;;32.10;58.90;;;;;;4986640;28;19929;-67
2023/07/07 13:41:12;;;;;;;;;;;32.30;60.00;;;;;;4986995;28;19944;-70
2023/07/07 13:43:42;;;;;;;;;;;32.50;59.60;;;;;;4986747;28;19928;-69
2023/07/07 13:46:12;;;;;;;;;;;32.50;58.60;;;;;;4986740;28;19930;-69
2023/07/07 13:48:48;;;;;;;;;;;32.50;58.70;;;;;;4986551;28;19985;-68
2023/07/07 13:51:16;;;;;;;;;;;32.60;60.20;;;;;;4985970;28;19926;-69
2023/07/07 13:53:42;;;;;;;;;;;32.80;59.90;;;;;;4985739;28;19922;-69
2023/07/07 13:56:09;;;;;;;;;;;33.00;57.90;;;;;;4986634;28;19957;-69
2023/07/07 13:58:40;;;;;;;;;;;33.00;56.90;;;;;;4986724;28;19955;-70
2023/07/07 14:01:17;;;;;;;;;;;32.90;56.50;;;;;;4986714;28;19922;-70
2023/07/07 14:03:45;;;;;;;;;;;33.00;56.60;;;;;;4986667;28;19929;-69
2023/07/07 14:06:14;;;;;;;;;;;33.00;56.60;;;;;;4986156;28;19922;-73
2023/07/07 14:08:44;;;;;;;;;;;33.00;56.90;;;;;;4989886;28;19953;-68
2023/07/07 14:11:28;;;;;;;;;;;33.00;56.50;;;;;;5004906;28;19934;-70
2023/07/07 14:13:57;;;;;;;;;;;33.00;55.70;;;;;;5004166;28;19928;-69
2023/07/07 14:16:28;;;;;;;;;;;33.20;57.60;;;;;;5003175;28;19976;-69
2023/07/07 14:18:58;;;;;;;;;;;33.30;57.50;;;;;;5000418;28;20411;-70
2023/07/07 14:21:27;;;;;;;;;;;33.30;56.70;;;;;;5004314;28;19944;-70
2023/07/07 14:23:53;;;;;;;;;;;33.50;57.00;;;;;;5005377;28;19922;-69
2023/07/07 14:26:22;;;;;;;;;;;33.60;57.70;;;;;;5005195;28;20224;-69